AirNav   Duncan Aviation - Near you to keep you flying
 
 1269 users online  

2WA3 Stuart Island West Airport
Friday Harbor, Washington, USA

GOING TO FRIDAY HARBOR?


FAA INFORMATION EFFECTIVE 11 AUGUST 2022

Location

FAA Identifier: 2WA3
Lat/Long: 48-41-04.3590N 123-12-34.6890W
48-41.072650N 123-12.578150W
48.6845442,-123.2096358
(estimated)
Elevation: 200 ft. / 61 m (estimated)
Variation: 21E (1985)
From city: 11 miles NW of FRIDAY HARBOR, WA
Time zone: UTC -7 (UTC -8 during Standard Time)
Zip code: 98250

Airport Operations

Airport use: Private use. Permission required prior to landing
Activation date: 07/1990
Control tower: no
ARTCC: SEATTLE CENTER
FSS: SEATTLE FLIGHT SERVICE STATION
Attendance: UNATNDD
Segmented circle: no

Airport Communications

WX AWOS-3 at ORS (12 nm E): 135.425 (360-376-6045)
WX ASOS at FHR (12 nm SE): 135.675 (360-378-8491)

Nearby radio navigation aids

VOR radial/distance  VOR name  Freq  Var
YYJr086/11.2VICTORIA VOR/DME113.7017E
YVRr169/23.7VANCOUVER VOR/DME115.9017E
HUHr218/29.4WHATCOM VORTAC113.0020E
CVVr305/32.7PENN COVE VOR/DME117.2019E

 
NDB name  Hdg/Dist  Freq  Var  ID
VICTORIA051/7.920021EYJ -.-- .---
ACTIVE PASS148/11.837816EAP .- .--.
FRIDAY HARBOR308/12.728417EFHR ..-. .... .-.
EDIZ HOOK356/33.633817ENOW -. --- .--
SKAGIT/BAY VIEW276/34.024016EBVS -... ...- ...
NANAIMO115/37.325121EYCD -.-- -.-. -..

Airport Services

Runway Information

Runway 9/27

Dimensions: 1560 x 50 ft. / 475 x 15 m
Surface: dirt
Operational restrictions: ONE WAY AIRSTRIP--ALL TKOFS TO E; ALL LNDGS TO W; RY 09 IS UNUSBL FOR LNDG; RY 27 UNUSBL FOR TKOFS.
RUNWAY 9  RUNWAY 27
Traffic pattern: leftleft
Obstructions: none600 ft. hill, 850 ft. from runway

Airport Ownership and Management from official FAA records

Ownership: Privately-owned
Owner: ISLAND HEIGHTS CORP.
15411 MANOR WAY
LYNNWOOD, WA 98087
Phone (425) 745-2800
Manager: VIVIAN SCHROTH
15411 MANOR WAY
LYNNWOOD, WA 98087
Phone (425) 745-2800
OTHER CONTACT; JIM BERGQUIST 425-608-2679; JBERG@ROCKISLAND.COM

Airport Operational Statistics

Aircraft based on the field: 1
Single engine airplanes: 1
    

Additional Remarks

CTAF - 128.25
FOR CD CTC SEATTLE ARTCC AT 253-351-3694.

Instrument Procedures

There are no published instrument procedures at 2WA3.

Some nearby airports with instrument procedures:

KORS - Orcas Island Airport (12 nm E)
KFHR - Friday Harbor Airport (12 nm SE)
KBLI - Bellingham International Airport (27 nm E)
KNUW - Whidbey Island Naval Air Station (Ault Field) Airport (30 nm SE)
KNOW - Port Angeles Coast Guard Air Station Airport (34 nm S)
 
Loc | Ops | Rwys | IFR | FBO | Links
Com | Nav | Svcs | Stats | Notes
Area around 2WA3 (Stuart Island West Airport)
 
Road maps at: MapQuest Bing Google
 
Aerial photo
No photo
 
Sectional chart

 
Airport distance calculator
Flying to Stuart Island West Airport? Find the distance to fly.

From to 2WA3

Sunrise and sunset
Times for 16-Aug-2022
 Local
(UTC-7)
 Zulu
(UTC)
Morning civil twilight05:3412:34
Sunrise06:0813:08
Sunset20:2603:26
Evening civil twilight21:0004:00

Current date and time
Zulu (UTC)  17-Aug-2022 01:23:06
Local (UTC-7)  16-Aug-2022 18:23:06
 
METAR
CWZO 
8nm S 
170000Z AUTO 17007KT RMK AO1
CWEZ 
9nm NE 
170000Z AUTO 06001KT 24/12 RMK AO1 SLP170 T02430116 57011
CYYJ 
9nm W 
170000Z 13004KT 100V160 30SM FEW035 FEW250 25/11 A3003 RMK CU1CI1 CU TR CI TR SLP172 DENSITY ALT 1100FT
KFHR 
12nm SE 
170053Z AUTO 12003KT 10SM CLR 20/12 A3004 RMK AO2 SLP171 T02000117
KORS 
12nm E 
170055Z AUTO 35004KT 10SM CLR 21/12 A3002 RMK AO2
CWYJ 
14nm S 
170000Z AUTO 10001KT 26/08 RMK AO1 SLP174 T02590075 57011
CWKH 
16nm SW 
170000Z AUTO 25/08 RMK AO1 SLP172 T02520079 58008
CWLM 
17nm S 
170000Z AUTO 23004KT 19/12 RMK AO1 SLP175 T01910122 57010
CYWH 
17nm S 
170000Z 24003KT 15SM SKC 17/13 A3004 RMK SLP176 DENSITY ALT 200FT
CWPF 
18nm SW 
170045Z AUTO 16005KT 20/12 RMK AO1 SLP167 T01970115 56014
TAF
CYYJ 
9nm W 
161740Z 1618/1718 12005KT P6SM FEW250 BECMG 1705/1707 27006KT BECMG 1716/1718 07007KT RMK NXT FCST BY 170000Z
CYWH 
17nm S 
162043Z 1621/1704 22005KT P6SM FEW150 SCT220 RMK NXT FCST BY 171400Z
NOTAMs
Click for the latest NOTAMs
NOTAMs are issued by the DoD/FAA and will open in a separate window not controlled by AirNav.

 

 
 

Would you like to see your business listed on this page?

 If your business provides an interesting product or service to pilots, flight crews, aircraft, or users of the Stuart Island West Airport, you should consider listing it here.  To start the listing process, click on the button below
 
Add a business
 

Other Pages about Stuart Island West Airport

Update a link
 
Copyright © AirNav, LLC. All rights reserved. Privacy Policy  Contact